Flight Track Log - Related Links

Times and Time Zones

All times are in EDT time to prevent confusion due to time zone crossing. See the VRD360 flight status page for this flight to view local times or setup timezone preferences in your user account.

Time Position Orientation Groundspeed Altitude Reporting Facility
EDT Latitude Longitude Course Direction KTS MPH feet Rate Location/Type
Tue 11:04:42 AM 33.9470 -118.4370 262° West 169 194 600  Level FlightAware ADS-B
Tue 11:04:57 AM 33.9450 -118.4510 260° West 166 191 1,300 1,950 Climbing FlightAware ADS-B
Tue 11:05:22 AM 33.9430 -118.4750 264° West 185 213 1,900 982 Climbing FlightAware ADS-B
Tue 11:05:52 AM 33.9390 -118.5070 261° West 227 261 2,200 667 Climbing FlightAware ADS-B
Tue 11:06:07 AM 33.9380 -118.5250 266° West 247 284 2,400 2,133 Climbing FlightAware ADS-B
Tue 11:06:37 AM 33.9320 -118.5740 262° West 268 308 3,800 2,400 Climbing FlightAware ADS-B
Tue 11:07:02 AM 33.9260 -118.6120 259° West 285 328 4,600 2,400 Climbing FlightAware ADS-B
Tue 11:07:17 AM 33.9170 -118.6360 246° West 291 335 5,400 2,600 Climbing FlightAware ADS-B
Tue 11:07:32 AM 33.9030 -118.6510 222° Southwest 289 333 5,900 2,400 Climbing FlightAware ADS-B
Tue 11:07:47 AM 33.8850 -118.6580 198° South 288 331 6,600 2,250 Climbing FlightAware ADS-B
Tue 11:08:12 AM 33.8530 -118.6460 163° South 290 334 7,400 2,100 Climbing FlightAware ADS-B
Tue 11:08:27 AM 33.8420 -118.6290 128° Southeast 289 333 8,000 2,200 Climbing FlightAware ADS-B
Tue 11:08:42 AM 33.8370 -118.6010 102° East 293 337 8,500 1,920 Climbing FlightAware ADS-B
Tue 11:08:52 AM 33.8390 -118.5870 80° East 295 339 8,800 1,920 Climbing FlightAware ADS-B
Tue 11:09:07 AM 33.8490 -118.5670 59° Northeast 293 337 9,300 1,900 Climbing FlightAware ADS-B
Tue 11:09:52 AM 33.8900 -118.5040 52° Northeast 316 364 10,700 1,412 Climbing FlightAware ADS-B
Tue 11:10:32 AM 33.9220 -118.4510 54° Northeast 350 403 11,300 1,694 Climbing FlightAware ADS-B
Tue 11:11:17 AM 33.9670 -118.3740 55° Northeast 355 409 13,100 2,100 Climbing FlightAware ADS-B
Tue 11:11:52 AM 33.9990 -118.3170 56° Northeast 367 422 14,100 2,100 Climbing FlightAware ADS-B
Tue 11:12:37 AM 34.0450 -118.2360 56° Northeast 369 425 15,900 2,133 Climbing FlightAware ADS-B
Tue 11:13:22 AM 34.0890 -118.1580 56° Northeast 377 434 17,300 1,694 Climbing FlightAware ADS-B
Tue 11:14:02 AM 34.1270 -118.0900 56° Northeast 388 447 18,300 1,624 Climbing FlightAware ADS-B
Tue 11:14:47 AM 34.1880 -117.9820 56° Northeast 406 467 19,600 1,650 Climbing FlightAware ADS-B
Tue 11:15:22 AM 34.2250 -117.9170 55° Northeast 412 474 20,500 1,500 Climbing FlightAware ADS-B
Tue 11:16:07 AM 34.2760 -117.8260 56° Northeast 424 488 21,600 1,333 Climbing FlightAware ADS-B
Tue 11:16:52 AM 34.3240 -117.7410 56° Northeast 432 497 22,500 1,412 Climbing FlightAware ADS-B
Tue 11:17:32 AM 34.3670 -117.6620 57° Northeast 434 499 23,600 1,412 Climbing FlightAware ADS-B
Tue 11:18:17 AM 34.4190 -117.5690 56° Northeast 444 511 24,500 1,275 Climbing FlightAware ADS-B
Tue 11:18:52 AM 34.4590 -117.4970 56° Northeast 445 512 25,300 1,280 Climbing FlightAware ADS-B
Tue 11:19:32 AM 34.5050 -117.4150 56° Northeast 449 517 26,100 1,200 Climbing FlightAware ADS-B
Tue 11:20:22 AM 34.5740 -117.3190 49° Northeast 450 518 27,100 1,067 Climbing FlightAware ADS-B
Tue 11:21:02 AM 34.6280 -117.2430 49° Northeast 456 525 27,700 1,129 Climbing FlightAware ADS-B
Tue 11:21:47 AM 34.6920 -117.1540 49° Northeast 456 525 28,700 1,129 Climbing FlightAware ADS-B
Tue 11:22:27 AM 34.7460 -117.0790 49° Northeast 460 529 29,300 975 Climbing FlightAware ADS-B
Tue 11:23:07 AM 34.8030 -116.9980 49° Northeast 460 529 30,000 988 Climbing FlightAware ADS-B
Tue 11:23:52 AM 34.8660 -116.9100 49° Northeast 465 535 30,700 1,125 Climbing FlightAware ADS-B
Tue 11:24:27 AM 34.9120 -116.8450 49° Northeast 459 528 31,500 1,200 Climbing FlightAware ADS-B
Tue 11:25:12 AM 34.9790 -116.7510 49° Northeast 460 529 32,300 1,200 Climbing FlightAware ADS-B
Tue 11:25:52 AM 35.0330 -116.6750 49° Northeast 448 516 33,200 847 Climbing FlightAware ADS-B
Tue 11:26:37 AM 35.0790 -116.5830 59° Northeast 465 535 33,500 600 Climbing FlightAware ADS-B
Tue 11:27:22 AM 35.1240 -116.4680 64° Northeast 465 535 34,100 776 Climbing FlightAware ADS-B
Tue 11:28:02 AM 35.1610 -116.3740 64° Northeast 462 532 34,600 635 Climbing FlightAware ADS-B
Tue 11:28:47 AM 35.2010 -116.2700 65° Northeast 464 534 35,000 282 Climbing FlightAware ADS-B
Tue 11:29:27 AM 35.2390 -116.1750 64° Northeast 465 535 35,000  Level FlightAware ADS-B
Tue 11:30:07 AM 35.2760 -116.0800 64° Northeast 465 535 35,000  Level FlightAware ADS-B
Tue 11:30:52 AM 35.3180 -115.9730 64° Northeast 466 536 35,000  Level FlightAware ADS-B
Tue 11:31:32 AM 35.3550 -115.8760 65° Northeast 467 537 35,000  Level FlightAware ADS-B
Tue 11:32:12 AM 35.3920 -115.7810 64° Northeast 468 539 35,000  Level FlightAware ADS-B
Tue 11:32:57 AM 35.4330 -115.6760 64° Northeast 469 540 35,000  Level FlightAware ADS-B
Tue 11:33:37 AM 35.4710 -115.5770 65° Northeast 473 544 35,000  Level FlightAware ADS-B
Tue 11:34:22 AM 35.5110 -115.4720 65° Northeast 478 550 35,000 71 Level FlightAware ADS-B
Tue 11:35:02 AM 35.5500 -115.3700 65° Northeast 480 552 35,100 75 Climbing FlightAware ADS-B
Tue 11:35:42 AM 35.5880 -115.2710 65° Northeast 479 551 35,100 -71 Level FlightAware ADS-B
Tue 11:36:27 AM 35.6300 -115.1610 65° Northeast 477 549 35,000 -71 Descending FlightAware ADS-B
Tue 11:37:07 AM 35.6670 -115.0610 65° Northeast 477 549 35,000  Level FlightAware ADS-B
Tue 11:37:52 AM 35.7080 -114.9530 65° Northeast 479 551 35,000  Level FlightAware ADS-B
Tue 11:38:32 AM 35.7460 -114.8530 65° Northeast 481 554 35,000  Level FlightAware ADS-B
Tue 11:39:17 AM 35.7900 -114.7370 65° Northeast 483 556 35,000  Level FlightAware ADS-B
Tue 11:39:57 AM 35.8260 -114.6380 66° East 485 558 35,000  Level FlightAware ADS-B
Tue 11:40:37 AM 35.8630 -114.5390 65° Northeast 488 562 35,000  Level FlightAware ADS-B
Tue 11:41:22 AM 35.9070 -114.4230 65° Northeast 492 566 35,000  Level FlightAware ADS-B
Tue 11:42:02 AM 35.9440 -114.3210 66° East 494 568 35,000  Level FlightAware ADS-B
Tue 11:42:42 AM 35.9820 -114.2180 65° Northeast 496 571 35,000  Level FlightAware ADS-B
Tue 11:43:27 AM 36.0240 -114.1050 65° Northeast 499 574 35,000  Level FlightAware ADS-B
Tue 11:44:07 AM 36.0630 -113.9990 66° East 499 574 35,000  Level FlightAware ADS-B
Tue 11:44:52 AM 36.1050 -113.8820 66° East 500 575 35,000  Level FlightAware ADS-B
Tue 11:45:32 AM 36.1430 -113.7780 66° East 501 577 35,000  Level FlightAware ADS-B
Tue 11:46:17 AM 36.1840 -113.6640 66° East 502 578 35,000  Level FlightAware ADS-B
Tue 11:46:57 AM 36.2230 -113.5560 66° East 503 579 35,000  Level FlightAware ADS-B
Tue 11:47:37 AM 36.2610 -113.4520 66° East 505 581 35,000  Level FlightAware ADS-B
Tue 11:48:22 AM 36.3040 -113.3320 66° East 507 583 35,000  Level FlightAware ADS-B
Tue 11:49:02 AM 36.3420 -113.2240 66° East 509 586 35,000  Level FlightAware ADS-B
Tue 11:49:42 AM 36.3790 -113.1200 66° East 509 586 35,000 71 Level FlightAware ADS-B
Tue 11:50:27 AM 36.4200 -113.0050 66° East 509 586 35,100  Climbing FlightAware ADS-B
Tue 11:51:07 AM 36.4600 -112.8920 66° East 506 582 35,000 -71 Descending FlightAware ADS-B
Tue 11:51:52 AM 36.5020 -112.7730 66° East 504 580 35,000  Level FlightAware ADS-B
Tue 11:52:32 AM 36.5410 -112.6630 66° East 506 582 35,000  Level FlightAware ADS-B
Tue 11:53:17 AM 36.5810 -112.5480 67° East 508 585 35,000  Level FlightAware ADS-B
Tue 11:53:57 AM 36.6160 -112.4480 66° East 509 586 35,000  Level FlightAware ADS-B
Tue 11:54:37 AM 36.6550 -112.3340 67° East 509 586 35,000  Level FlightAware ADS-B
Tue 11:55:22 AM 36.6960 -112.2180 66° East 509 586 35,000  Level FlightAware ADS-B
Tue 11:56:02 AM 36.7290 -112.1270 66° East 509 586 35,000  Level FlightAware ADS-B
Tue 11:56:42 AM 36.7610 -112.0360 66° East 509 586 35,000  Level FlightAware ADS-B
Tue 11:57:22 AM 36.7940 -111.9440 66° East 509 586 35,000  Level FlightAware ADS-B
Tue 11:58:02 AM 36.8260 -111.8530 66° East 509 586 35,000  Level FlightAware ADS-B
Tue 11:58:52 AM 36.8670 -111.7390 66° East 509 586 35,000  Level FlightAware ADS-B
Tue 11:59:32 AM 36.9000 -111.6470 66° East 509 586 35,000  Level FlightAware ADS-B
Tue 12:00:12 PM 36.9320 -111.5560 66° East 509 586 35,000  Level FlightAware ADS-B
Tue 12:00:52 PM 36.9650 -111.4640 66° East 509 586 35,000  Level FlightAware ADS-B
Tue 12:01:32 PM 36.9970 -111.3730 66° East 509 586 35,000  Level FlightAware ADS-B
Tue 12:02:22 PM 37.0380 -111.2580 66° East 509 586 35,000  Level FlightAware ADS-B
Tue 12:03:02 PM 37.0700 -111.1670 66° East 509 586 35,000  Level FlightAware ADS-B
Tue 12:03:42 PM 37.1030 -111.0750 66° East 509 586 35,000  Level FlightAware ADS-B
Tue 12:04:22 PM 37.1360 -110.9830 66° East 509 586 35,000  Level FlightAware ADS-B
Tue 12:04:39 PM 37.2042 -110.7050 66° East 508 585 35,000  Level Denver Center
Tue 12:05:41 PM 37.2575 -110.5408 68° East 509 586 35,000  Level Denver Center
Tue 12:06:43 PM 37.3114 -110.3753 68° East 513 590 35,000 48 Level Denver Center
Tue 12:07:45 PM 37.3761 -110.1756 68° East 519 597 35,100 48 Climbing Denver Center
Tue 12:08:47 PM 37.4283 -110.0131 68° East 520 598 35,100 -48 Level Denver Center
Tue 12:09:49 PM 37.4797 -109.8508 68° East 523 602 35,000 -48 Descending Denver Center
Tue 12:10:51 PM 37.5403 -109.6600 68° East 525 604 35,000  Level Denver Center
Tue 12:11:53 PM 37.5922 -109.4939 68° East 529 609 35,000  Level Denver Center
Tue 12:12:56 PM 37.6533 -109.3014 68° East 528 608 35,000 48 Level Denver Center
Tue 12:13:58 PM 37.7050 -109.1356 68° East 530 610 35,100  Climbing Denver Center
Tue 12:15:00 PM 37.7642 -108.9431 69° East 525 604 35,000 -32 Descending Denver Center
Tue 12:16:00 PM 37.8042 -108.7793 73° East  Level FlightAware Approximate
Tue 12:17:04 PM 37.8731 -108.5869 73° East 521 600 35,000  Level Denver Center
Tue 12:18:06 PM 37.9231 -108.4203 69° East 525 604 35,100  Climbing Denver Center
Tue 12:19:08 PM 37.9814 -108.2300 69° East 522 601 35,000 -48 Descending Denver Center
Tue 12:20:10 PM 38.0306 -108.0658 69° East 519 597 35,000  Level Denver Center
Tue 12:21:12 PM 38.0853 -107.8833 69° East 523 602 35,000  Level Denver Center
Tue 12:22:14 PM 38.1328 -107.7183 70° East 522 601 35,000  Level Denver Center
Tue 12:28:19 PM 38.4441 -106.6430 70° East 517 595 35,000  Level FlightAware ADS-B
Tue 12:29:12 PM 38.4870 -106.4910 70° East 519 597 35,000  Level FlightAware ADS-B
Tue 12:29:42 PM 38.5115 -106.4040 70° East 522 601 35,000  Level FlightAware ADS-B
Tue 12:30:25 PM 38.5461 -106.2800 70° East 523 602 35,000 79 Level FlightAware ADS-B
Tue 12:30:58 PM 38.5734 -106.1830 70° East 523 602 35,100 90 Climbing FlightAware ADS-B
Tue 12:31:32 PM 38.5990 -106.0900 71° East 520 598 35,100 -143 Level FlightAware ADS-B
Tue 12:31:40 PM 38.6067 -106.0630 70° East 521 600 35,000 -150 Descending FlightAware ADS-B
Tue 12:32:12 PM 38.6320 -105.9720 70° East 520 598 35,000  Level FlightAware ADS-B
Tue 12:32:18 PM 38.6369 -105.9540 71° East 520 598 35,000  Level FlightAware ADS-B
Tue 12:32:48 PM 38.6613 -105.8650 71° East 522 601 35,000  Level FlightAware ADS-B
Tue 12:33:19 PM 38.6859 -105.7750 71° East 521 600 35,000  Level FlightAware ADS-B
Tue 12:33:49 PM 38.7101 -105.6860 71° East 523 602 35,000  Level FlightAware ADS-B
Tue 12:34:20 PM 38.7341 -105.5980 71° East 525 604 35,000  Level FlightAware ADS-B
Tue 12:34:50 PM 38.7585 -105.5080 71° East 526 605 35,000  Level FlightAware ADS-B
Tue 12:35:21 PM 38.7833 -105.4160 71° East 528 608 35,000  Level FlightAware ADS-B
Tue 12:35:52 PM 38.8078 -105.3260 71° East 530 610 35,000 98 Level FlightAware ADS-B
Tue 12:36:22 PM 38.8310 -105.2390 71° East 531 611 35,100 100 Climbing FlightAware ADS-B
Tue 12:36:52 PM 38.8551 -105.1490 71° East 531 611 35,100  Level FlightAware ADS-B
Tue 12:37:22 PM 38.8790 -105.0590 71° East 528 608 35,100 -100 Level FlightAware ADS-B
Tue 12:37:52 PM 38.9031 -104.9680 71° East 526 605 35,000 -98 Descending FlightAware ADS-B
Tue 12:38:23 PM 38.9265 -104.8800 71° East 524 603 35,000  Level FlightAware ADS-B
Tue 12:38:56 PM 38.9520 -104.7830 71° East 523 602 35,000  Level FlightAware ADS-B
Tue 12:39:29 PM 38.9782 -104.6840 71° East 523 602 35,000  Level FlightAware ADS-B
Tue 12:40:00 PM 39.0011 -104.5960 71° East 523 602 35,000  Level FlightAware ADS-B
Tue 12:40:30 PM 39.0247 -104.5060 71° East 524 603 35,000  Level FlightAware ADS-B
Tue 12:41:02 PM 39.0498 -104.4090 72° East 525 604 35,000  Level FlightAware ADS-B
Tue 12:41:33 PM 39.0724 -104.3220 71° East 524 603 35,000  Level FlightAware ADS-B
Tue 12:42:06 PM 39.0976 -104.2240 72° East 523 602 35,000  Level FlightAware ADS-B
Tue 12:42:36 PM 39.1211 -104.1320 72° East 522 601 35,000  Level FlightAware ADS-B
Tue 12:43:07 PM 39.1441 -104.0430 72° East 522 601 35,000  Level FlightAware ADS-B
Tue 12:43:38 PM 39.1670 -103.9530 72° East 523 602 35,000  Level FlightAware ADS-B
Tue 12:44:08 PM 39.1900 -103.8630 72° East 521 600 35,000  Level FlightAware ADS-B
Tue 12:44:38 PM 39.2127 -103.7730 72° East 522 601 35,000  Level FlightAware ADS-B
Tue 12:45:08 PM 39.2346 -103.6860 72° East 521 600 35,000  Level FlightAware ADS-B
Tue 12:45:38 PM 39.2572 -103.5960 72° East 522 601 35,000  Level FlightAware ADS-B
Tue 12:46:09 PM 39.2802 -103.5040 72° East 522 601 35,000  Level FlightAware ADS-B
Tue 12:46:41 PM 39.3037 -103.4100 72° East 521 600 35,000  Level FlightAware ADS-B
Tue 12:47:11 PM 39.3258 -103.3210 72° East 522 601 35,000  Level FlightAware ADS-B
Tue 12:47:42 PM 39.3481 -103.2310 72° East 522 601 35,000  Level FlightAware ADS-B
Tue 12:48:13 PM 39.3710 -103.1380 72° East 522 601 35,000  Level FlightAware ADS-B
Tue 12:48:43 PM 39.3923 -103.0510 72° East 522 601 35,000  Level FlightAware ADS-B
Tue 12:49:13 PM 39.4148 -102.9600 72° East 523 602 35,000  Level FlightAware ADS-B
Tue 12:49:43 PM 39.4367 -102.8700 72° East 525 604 35,000  Level FlightAware ADS-B
Tue 12:50:14 PM 39.4594 -102.7770 72° East 529 609 35,000  Level FlightAware ADS-B
Tue 12:50:44 PM 39.4807 -102.6880 73° East 531 611 35,000 100 Level FlightAware ADS-B
Tue 12:51:14 PM 39.5031 -102.5950 73° East 532 612 35,100 100 Climbing FlightAware ADS-B
Tue 12:51:44 PM 39.5251 -102.5030 73° East 533 613 35,100  Level FlightAware ADS-B
Tue 12:52:15 PM 39.5476 -102.4090 73° East 532 612 35,100  Level FlightAware ADS-B
Tue 12:52:45 PM 39.5690 -102.3190 73° East 530 610 35,100 -98 Level FlightAware ADS-B
Tue 12:53:16 PM 39.5907 -102.2270 73° East 529 609 35,000 -98 Descending FlightAware ADS-B
Tue 12:53:46 PM 39.6128 -102.1340 73° East 528 608 35,000  Level FlightAware ADS-B
Tue 12:54:17 PM 39.6347 -102.0410 73° East 526 605 35,000  Level FlightAware ADS-B
Tue 12:54:48 PM 39.6564 -101.9480 73° East 525 604 35,000  Level FlightAware ADS-B
Tue 12:55:19 PM 39.6782 -101.8550 73° East 523 602 35,000  Level FlightAware ADS-B
Tue 12:55:49 PM 39.6992 -101.7650 73° East 521 600 35,000  Level FlightAware ADS-B
Tue 12:56:20 PM 39.7199 -101.6760 73° East 520 598 35,000  Level FlightAware ADS-B
Tue 12:56:50 PM 39.7411 -101.5840 73° East 522 601 35,000  Level FlightAware ADS-B
Tue 12:57:21 PM 39.7623 -101.4910 73° East 521 600 35,000  Level FlightAware ADS-B
Tue 12:57:51 PM 39.7834 -101.3990 73° East 522 601 35,000  Level FlightAware ADS-B
Tue 12:58:21 PM 39.8031 -101.3120 74° East 525 604 35,000  Level FlightAware ADS-B
Tue 12:58:52 PM 39.8244 -101.2180 74° East 525 604 35,000  Level FlightAware ADS-B
Tue 12:59:28 PM 39.8478 -101.1167 74° East 523 602 35,000  Level Denver Center
Tue 01:00:31 PM 39.8869 -100.9411 74° East 527 606 35,000  Level Denver Center
Tue 01:01:33 PM 39.9325 -100.7381 74° East 526 605 35,000  Level Denver Center
Tue 01:02:35 PM 39.9708 -100.5628 74° East 528 608 35,000  Level Denver Center
Tue 01:03:37 PM 40.0144 -100.3594 74° East 525 604 35,000  Level Denver Center
Tue 01:04:39 PM 40.0539 -100.1844 74° East 528 608 35,000  Level Denver Center
Tue 01:05:41 PM 40.0969 -99.9789 75° East 528 608 35,000  Level Denver Center
Tue 01:06:43 PM 40.1333 -99.8119 74° East 528 608 35,000  Level Denver Center
Tue 01:07:45 PM 40.1794 -99.5900 75° East 527 606 35,000  Level Denver Center
Tue 01:08:47 PM 40.2189 -99.4058 74° East 527 606 35,000  Level Denver Center
Tue 01:09:49 PM 40.2569 -99.2208 75° East 528 608 35,000  Level Denver Center
Tue 01:10:51 PM 40.2947 -99.0347 75° East 530 610 35,000  Level Denver Center
Tue 01:11:53 PM 40.3331 -98.8478 75° East 531 611 35,000  Level Denver Center
Tue 01:12:27 PM 40.3561 -98.7364 75° East 533 613 35,000  Level Minneapolis Center
Tue 01:13:29 PM 40.3936 -98.5497 75° East 532 612 35,000  Level Minneapolis Center
Tue 01:19:47 PM 40.6030 -97.4730 75° East 534 615 35,000  Level FlightAware ADS-B
Tue 01:20:22 PM 40.6220 -97.3710 76° East 534 615 35,000  Level FlightAware ADS-B
Tue 01:21:12 PM 40.6470 -97.2370 76° East 534 615 35,000  Level FlightAware ADS-B
Tue 01:21:52 PM 40.6680 -97.1290 76° East 534 615 35,000  Level FlightAware ADS-B
Tue 01:22:32 PM 40.6880 -97.0220 76° East 534 615 35,000  Level FlightAware ADS-B
Tue 01:23:17 PM 40.7190 -96.8460 77° East 536 617 35,000  Level FlightAware ADS-B
Tue 01:23:57 PM 40.7450 -96.7070 76° East 536 617 35,000  Level FlightAware ADS-B
Tue 01:24:52 PM 40.7690 -96.5710 77° East 535 616 35,000  Level FlightAware ADS-B
Tue 01:25:32 PM 40.7880 -96.4630 77° East 535 616 35,000  Level FlightAware ADS-B
Tue 01:26:12 PM 40.8070 -96.3540 77° East 535 616 35,000  Level FlightAware ADS-B
Tue 01:27:02 PM 40.8530 -96.1050 76° East 531 611 35,000  Level FlightAware ADS-B
Tue 01:27:52 PM 40.8750 -95.9740 77° East 531 611 35,000  Level FlightAware ADS-B
Tue 01:28:32 PM 40.8940 -95.8660 77° East 531 611 35,000  Level FlightAware ADS-B
Tue 01:29:22 PM 40.9180 -95.7320 77° East 531 611 35,000  Level FlightAware ADS-B
Tue 01:30:02 PM 40.9360 -95.6240 78° East 531 611 35,000  Level FlightAware ADS-B
Tue 01:30:42 PM 40.9550 -95.5160 77° East 531 611 35,000  Level FlightAware ADS-B
Tue 01:31:22 PM 40.9880 -95.3150 78° East 529 609 35,000  Level FlightAware ADS-B
Tue 01:32:07 PM 41.0120 -95.1730 77° East 529 609 35,000  Level FlightAware ADS-B
Tue 01:33:07 PM 41.0440 -94.9820 77° East 529 609 35,000  Level FlightAware ADS-B
Tue 01:33:42 PM 41.0610 -94.8740 78° East 529 609 35,000  Level FlightAware ADS-B
Tue 01:34:27 PM 41.0890 -94.7090 77° East 35,000  Level FlightAware ADS-B
Tue 01:36:37 PM 41.1790 -94.1480 78° East 528 608 35,000  Level FlightAware ADS-B
Tue 01:37:27 PM 41.2040 -93.9870 78° East 526 605 35,000  Level FlightAware ADS-B
Tue 01:38:12 PM 41.2240 -93.8630 78° East 526 605 35,000  Level FlightAware ADS-B
Tue 01:38:52 PM 41.2410 -93.7560 78° East 526 605 35,000  Level FlightAware ADS-B
Tue 01:39:32 PM 41.2580 -93.6480 78° East 526 605 35,000  Level FlightAware ADS-B
Tue 01:40:17 PM 41.2900 -93.4560 77° East 527 606 35,000  Level FlightAware ADS-B
Tue 01:41:02 PM 41.3120 -93.3170 78° East 526 605 35,000  Level FlightAware ADS-B
Tue 01:41:42 PM 41.3330 -93.1900 78° East 524 603 35,000  Level FlightAware ADS-B
Tue 01:42:27 PM 41.3570 -93.0390 78° East 525 604 35,000  Level FlightAware ADS-B
Tue 01:43:07 PM 41.3760 -92.9200 78° East 523 602 35,000  Level FlightAware ADS-B
Tue 01:44:02 PM 41.4030 -92.7490 78° East 522 601 35,000  Level FlightAware ADS-B
Tue 01:44:37 PM 41.4190 -92.6460 78° East 522 601 35,000  Level FlightAware ADS-B
Tue 01:45:27 PM 41.4450 -92.4770 78° East 522 601 35,000  Level FlightAware ADS-B
Tue 01:46:12 PM 41.4670 -92.3390 78° East 522 601 35,000  Level FlightAware ADS-B
Tue 01:46:52 PM 41.4860 -92.2100 79° East 521 600 35,000  Level FlightAware ADS-B
Tue 01:47:32 PM 41.5060 -92.0790 78° East 521 600 35,000  Level FlightAware ADS-B
Tue 01:48:17 PM 41.5270 -91.9410 78° East 521 600 35,000  Level FlightAware ADS-B
Tue 01:48:57 PM 41.5450 -91.8160 79° East 522 601 35,000  Level FlightAware ADS-B
Tue 01:49:37 PM 41.5630 -91.6940 79° East 522 601 35,000  Level FlightAware ADS-B
Tue 01:50:22 PM 41.5850 -91.5490 78° East 522 601 35,000  Level FlightAware ADS-B
Tue 01:51:02 PM 41.6030 -91.4240 79° East 523 602 35,000  Level FlightAware ADS-B
Tue 01:51:47 PM 41.6230 -91.2820 79° East 522 601 35,000  Level FlightAware ADS-B
Tue 01:52:27 PM 41.6410 -91.1550 79° East 521 600 35,000  Level FlightAware ADS-B
Tue 01:53:12 PM 41.6610 -91.0150 79° East 519 597 35,000  Level FlightAware ADS-B
Tue 01:53:52 PM 41.6790 -90.8870 79° East 519 597 35,000  Level FlightAware ADS-B
Tue 01:54:32 PM 41.6970 -90.7610 79° East 518 596 35,000  Level FlightAware ADS-B
Tue 01:55:17 PM 41.7140 -90.6330 80° East 517 595 35,000  Level FlightAware ADS-B
Tue 01:56:12 PM 41.7380 -90.4600 79° East 517 595 35,000  Level FlightAware ADS-B
Tue 01:56:52 PM 41.7570 -90.3160 80° East 517 595 35,000  Level FlightAware ADS-B
Tue 01:57:37 PM 41.7760 -90.1750 80° East 517 595 35,000  Level FlightAware ADS-B
Tue 01:58:17 PM 41.7930 -90.0450 80° East 515 593 35,000  Level FlightAware ADS-B
Tue 01:59:02 PM 41.8110 -89.9090 80° East 516 594 35,000  Level FlightAware ADS-B
Tue 01:59:42 PM 41.8270 -89.7820 80° East 516 594 35,000  Level FlightAware ADS-B
Tue 02:00:27 PM 41.8460 -89.6390 80° East 517 595 35,000 141 Level FlightAware ADS-B
Tue 02:01:07 PM 41.8620 -89.5090 81° East 519 597 35,200 525 Climbing FlightAware ADS-B
Tue 02:01:47 PM 41.8780 -89.3840 80° East 523 602 35,700 635 Climbing FlightAware ADS-B
Tue 02:02:32 PM 41.8960 -89.2410 80° East 528 608 36,100 565 Climbing FlightAware ADS-B
Tue 02:03:12 PM 41.9120 -89.1120 80° East 529 609 36,500 675 Climbing FlightAware ADS-B
Tue 02:03:52 PM 41.9280 -88.9800 81° East 529 609 37,000 353 Climbing FlightAware ADS-B
Tue 02:04:37 PM 41.9450 -88.8360 81° East 527 606 37,000  Level FlightAware ADS-B
Tue 02:05:17 PM 41.9610 -88.7050 81° East 526 605 37,000  Level FlightAware ADS-B
Tue 02:06:02 PM 41.9780 -88.5650 81° East 520 598 37,000  Level FlightAware ADS-B
Tue 02:06:42 PM 41.9920 -88.4390 81° East 516 594 37,000  Level FlightAware ADS-B
Tue 02:07:22 PM 42.0070 -88.3150 81° East 518 596 37,000  Level FlightAware ADS-B
Tue 02:08:07 PM 42.0240 -88.1710 81° East 520 598 37,000  Level FlightAware ADS-B
Tue 02:08:47 PM 42.0380 -88.0430 82° East 520 598 37,000  Level FlightAware ADS-B
Tue 02:09:27 PM 42.0530 -87.9130 81° East 519 597 37,000  Level FlightAware ADS-B
Tue 02:10:12 PM 42.0690 -87.7700 81° East 519 597 37,000  Level FlightAware ADS-B
Tue 02:10:52 PM 42.0830 -87.6440 81° East 518 596 37,000  Level FlightAware ADS-B
Tue 02:11:37 PM 42.0990 -87.4960 82° East 516 594 37,000  Level FlightAware ADS-B
Tue 02:12:17 PM 42.1120 -87.3720 82° East 516 594 37,000  Level FlightAware ADS-B
Tue 02:12:57 PM 42.1260 -87.2440 82° East 516 594 37,000  Level FlightAware ADS-B
Tue 02:13:42 PM 42.1400 -87.1080 82° East 517 595 37,000  Level FlightAware ADS-B
Tue 02:14:22 PM 42.1530 -86.9800 82° East 517 595 37,000  Level FlightAware ADS-B
Tue 02:15:07 PM 42.1680 -86.8380 82° East 517 595 37,000  Level FlightAware ADS-B
Tue 02:15:47 PM 42.1820 -86.7060 82° East 517 595 37,000  Level FlightAware ADS-B
Tue 02:16:27 PM 42.1950 -86.5720 82° East 518 596 37,000  Level FlightAware ADS-B
Tue 02:17:12 PM 42.2080 -86.4380 82° East 519 597 37,000  Level FlightAware ADS-B
Tue 02:17:52 PM 42.2210 -86.3070 82° East 520 598 37,000  Level FlightAware ADS-B
Tue 02:18:37 PM 42.2350 -86.1640 82° East 520 598 37,000  Level FlightAware ADS-B
Tue 02:19:12 PM 42.2460 -86.0470 83° East 521 600 37,000  Level FlightAware ADS-B
Tue 02:19:57 PM 42.2600 -85.9040 82° East 520 598 37,000  Level FlightAware ADS-B
Tue 02:20:42 PM 42.2730 -85.7590 83° East 519 597 37,000  Level FlightAware ADS-B
Tue 02:21:22 PM 42.2850 -85.6300 83° East 519 597 37,000  Level FlightAware ADS-B
Tue 02:22:07 PM 42.2980 -85.4890 83° East 519 597 37,000  Level FlightAware ADS-B
Tue 02:22:47 PM 42.3090 -85.3650 83° East 519 597 37,000  Level FlightAware ADS-B
Tue 02:23:32 PM 42.3220 -85.2110 83° East 518 596 37,000  Level FlightAware ADS-B
Tue 02:24:07 PM 42.3320 -85.1000 83° East 519 597 37,000  Level FlightAware ADS-B
Tue 02:24:52 PM 42.3450 -84.9530 83° East 521 600 37,000 67 Level FlightAware ADS-B
Tue 02:25:37 PM 42.3570 -84.8060 84° East 518 596 37,100  Climbing FlightAware ADS-B
Tue 02:26:12 PM 42.3660 -84.7050 83° East 518 596 37,000 -71 Descending FlightAware ADS-B
Tue 02:27:02 PM 42.3800 -84.5390 83° East 517 595 37,000  Level FlightAware ADS-B
Tue 02:27:37 PM 42.3880 -84.4280 84° East 515 593 37,000  Level FlightAware ADS-B
Tue 02:28:27 PM 42.4010 -84.2680 84° East 514 592 37,000  Level FlightAware ADS-B
Tue 02:29:07 PM 42.4110 -84.1440 84° East 514 592 37,000  Level FlightAware ADS-B
Tue 02:29:47 PM 42.4210 -84.0140 84° East 515 593 37,000  Level FlightAware ADS-B
Tue 02:30:32 PM 42.4320 -83.8680 84° East 516 594 37,000  Level FlightAware ADS-B
Tue 02:31:12 PM 42.4420 -83.7350 84° East 517 595 37,000  Level FlightAware ADS-B
Tue 02:31:52 PM 42.4510 -83.6120 84° East 517 595 37,000  Level FlightAware ADS-B
Tue 02:32:52 PM 42.4630 -83.4450 84° East 517 595 37,000 -300 Level FlightAware ADS-B
Tue 02:33:32 PM 42.4730 -83.3110 84° East 517 595 36,500 -720 Descending FlightAware ADS-B
Tue 02:34:07 PM 42.4800 -83.2040 85° East 520 598 36,100 -918 Descending FlightAware ADS-B
Tue 02:34:57 PM 42.4920 -83.0400 84° East 518 596 35,200 -733 Descending FlightAware ADS-B
Tue 02:35:37 PM 42.5010 -82.9050 85° East 520 598 35,000 -141 Descending FlightAware ADS-B
Tue 02:36:22 PM 42.5110 -82.7570 85° East 523 602 35,000  Level FlightAware ADS-B
Tue 02:36:57 PM 42.5180 -82.6460 85° East 521 600 35,000  Level FlightAware ADS-B
Tue 02:37:42 PM 42.5270 -82.5070 85° East 520 598 35,000  Level FlightAware ADS-B
Tue 02:38:17 PM 42.5340 -82.3860 85° East 519 597 35,000  Level FlightAware ADS-B
Tue 02:39:07 PM 42.5440 -82.2260 85° East 518 596 35,000  Level FlightAware ADS-B
Tue 02:39:42 PM 42.5510 -82.1150 85° East 518 596 35,000  Level FlightAware ADS-B
Tue 02:40:32 PM 42.5610 -81.9520 85° East 517 595 35,000  Level FlightAware ADS-B
Tue 02:41:12 PM 42.5680 -81.8320 85° East 517 595 35,000  Level FlightAware ADS-B
Tue 02:41:57 PM 42.5760 -81.6850 86° East 517 595 35,000  Level FlightAware ADS-B
Tue 02:42:32 PM 42.5830 -81.5600 86° East 517 595 35,000  Level FlightAware ADS-B
Tue 02:43:17 PM 42.5910 -81.4230 85° East 517 595 35,000  Level FlightAware ADS-B
Tue 02:43:57 PM 42.5980 -81.2910 86° East 517 595 35,000  Level FlightAware ADS-B
Tue 02:44:42 PM 42.6050 -81.1550 86° East 517 595 35,000  Level FlightAware ADS-B
Tue 02:45:22 PM 42.6110 -81.0250 86° East 516 594 35,000  Level FlightAware ADS-B
Tue 02:46:07 PM 42.6190 -80.8700 86° East 515 593 35,000  Level FlightAware ADS-B
Tue 02:46:52 PM 42.6260 -80.7230 86° East 515 593 35,000  Level FlightAware ADS-B
Tue 02:47:32 PM 42.6320 -80.5890 86° East 515 593 35,000  Level FlightAware ADS-B
Tue 02:48:27 PM 42.6410 -80.3930 86° East 515 593 35,000  Level FlightAware ADS-B
Tue 02:49:07 PM 42.6470 -80.2630 86° East 516 594 35,000  Level FlightAware ADS-B
Tue 02:49:52 PM 42.6530 -80.1210 87° East 516 594 35,000  Level FlightAware ADS-B
Tue 02:50:32 PM 42.6590 -79.9950 86° East 516 594 35,000  Level FlightAware ADS-B
Tue 02:51:17 PM 42.6650 -79.8490 87° East 514 592 35,000  Level FlightAware ADS-B
Tue 02:51:57 PM 42.6700 -79.7200 87° East 514 592 35,000  Level FlightAware ADS-B
Tue 02:52:42 PM 42.6750 -79.5740 87° East 512 589 35,000  Level FlightAware ADS-B
Tue 02:53:22 PM 42.6800 -79.4470 87° East 509 586 35,000  Level FlightAware ADS-B
Tue 02:53:57 PM 42.6840 -79.3360 87° East 508 585 35,000 75 Level FlightAware ADS-B
Tue 02:54:42 PM 42.6890 -79.1900 87° East 500 575 35,100 67 Climbing FlightAware ADS-B
Tue 02:55:27 PM 42.6940 -79.0530 87° East 492 566 35,100 -71 Level FlightAware ADS-B
Tue 02:56:07 PM 42.6970 -78.9400 88° East 487 560 35,000 -71 Descending FlightAware ADS-B
Tue 02:56:52 PM 42.7020 -78.8060 87° East 480 552 35,000  Level FlightAware ADS-B
Tue 02:57:32 PM 42.7050 -78.6880 88° East 479 551 35,000  Level FlightAware ADS-B
Tue 02:58:17 PM 42.7090 -78.5530 88° East 479 551 35,000  Level FlightAware ADS-B
Tue 02:58:57 PM 42.7130 -78.4320 87° East 481 554 35,000  Level FlightAware ADS-B
Tue 02:59:37 PM 42.7160 -78.3110 88° East 485 558 35,000 71 Level FlightAware ADS-B
Tue 03:00:22 PM 42.7190 -78.1750 88° East 485 558 35,100 71 Climbing FlightAware ADS-B
Tue 03:01:02 PM 42.7220 -78.0530 88° East 484 557 35,100  Level FlightAware ADS-B
Tue 03:01:42 PM 42.7250 -77.9330 88° East 482 555 35,100 -71 Level FlightAware ADS-B
Tue 03:02:27 PM 42.7280 -77.7960 88° East 480 552 35,000 -71 Descending FlightAware ADS-B
Tue 03:03:07 PM 42.7310 -77.6770 88° East 481 554 35,000  Level FlightAware ADS-B
Tue 03:03:52 PM 42.7340 -77.5430 88° East 478 550 35,000  Level FlightAware ADS-B
Tue 03:04:32 PM 42.7360 -77.4230 89° East 477 549 35,000 71 Level FlightAware ADS-B
Tue 03:05:17 PM 42.7380 -77.2890 89° East 472 543 35,100 71 Climbing FlightAware ADS-B
Tue 03:05:57 PM 42.7410 -77.1700 88° East 466 536 35,100 -75 Level FlightAware ADS-B
Tue 03:06:37 PM 42.7430 -77.0540 89° East 461 531 35,000 -71 Descending FlightAware ADS-B
Tue 03:07:22 PM 42.7450 -76.9230 89° East 457 526 35,000  Level FlightAware ADS-B
Tue 03:08:02 PM 42.7460 -76.8140 89° East 455 524 35,000 71 Level FlightAware ADS-B
Tue 03:08:47 PM 42.7480 -76.6830 89° East 448 516 35,100  Climbing FlightAware ADS-B
Tue 03:09:27 PM 42.7490 -76.5730 89° East 449 517 35,000 -75 Descending FlightAware ADS-B
Tue 03:10:07 PM 42.7500 -76.4590 89° East 451 519 35,000  Level FlightAware ADS-B
Tue 03:10:52 PM 42.7510 -76.3320 89° East 451 519 35,000 71 Level FlightAware ADS-B
Tue 03:11:32 PM 42.7520 -76.2210 89° East 449 517 35,100  Climbing FlightAware ADS-B
Tue 03:12:12 PM 42.7540 -76.1070 89° East 448 516 35,000 -71 Descending FlightAware ADS-B
Tue 03:12:57 PM 42.7540 -75.9800 90° East 445 512 35,000  Level FlightAware ADS-B
Tue 03:13:37 PM 42.7550 -75.8690 89° East 443 510 35,000  Level FlightAware ADS-B
Tue 03:14:22 PM 42.7560 -75.7460 89° East 443 510 35,000  Level FlightAware ADS-B
Tue 03:15:02 PM 42.7560 -75.6320 90° East 444 511 35,000  Level FlightAware ADS-B
Tue 03:15:42 PM 42.7560 -75.5180 90° East 448 516 35,000  Level FlightAware ADS-B
Tue 03:16:27 PM 42.7570 -75.3970 89° East 454 522 35,000 63 Level FlightAware ADS-B
Tue 03:17:17 PM 42.7570 -75.2540 90° East 457 526 35,100 63 Climbing FlightAware ADS-B
Tue 03:18:02 PM 42.7570 -75.1210 90° East 456 525 35,100 -71 Level FlightAware ADS-B
Tue 03:18:42 PM 42.7560 -75.0070 91° East 457 526 35,000 -71 Descending FlightAware ADS-B
Tue 03:19:27 PM 42.7560 -74.8770 90° East 457 526 35,000  Level FlightAware ADS-B
Tue 03:20:12 PM 42.7550 -74.7480 91° East 456 525 35,000 75 Level FlightAware ADS-B
Tue 03:20:47 PM 42.7550 -74.6490 90° East 452 520 35,100 63 Climbing FlightAware ADS-B
Tue 03:21:47 PM 42.7550 -74.4810 90° East 448 516 35,100  Level FlightAware ADS-B
Tue 03:22:27 PM 42.7550 -74.3850 90° East 448 516 35,100 -67 Level FlightAware ADS-B
Tue 03:23:17 PM 42.7520 -74.2140 91° East 441 507 35,000 -71 Descending FlightAware ADS-B
Tue 03:23:52 PM 42.7510 -74.1290 91° East 443 510 35,000  Level FlightAware ADS-B
Tue 03:24:42 PM 42.7500 -73.9800 90° East 444 511 35,000  Level FlightAware ADS-B
Tue 03:25:22 PM 42.7480 -73.8670 91° East 445 512 35,000  Level FlightAware ADS-B
Tue 03:26:02 PM 42.7430 -73.7570 94° East 431 496 35,000  Level FlightAware ADS-B
Tue 03:26:47 PM 42.7300 -73.6360 98° East 432 497 35,000 -141 Level FlightAware ADS-B
Tue 03:27:27 PM 42.7180 -73.5290 99° East 432 497 34,800 -565 Descending FlightAware ADS-B
Tue 03:28:12 PM 42.7060 -73.4120 98° East 428 493 34,200 -918 Descending FlightAware ADS-B
Tue 03:28:52 PM 42.6940 -73.3030 98° East 430 495 33,500 -975 Descending FlightAware ADS-B
Tue 03:29:32 PM 42.6830 -73.2050 99° East 433 498 32,900 -988 Descending FlightAware ADS-B
Tue 03:30:17 PM 42.6690 -73.0740 98° East 445 512 32,100 -1,976 Descending FlightAware ADS-B
Tue 03:30:57 PM 42.6560 -72.9620 99° East 450 518 30,100 -3,411 Descending FlightAware ADS-B
Tue 03:31:52 PM 42.6390 -72.8070 98° East 463 533 26,700 -3,060 Descending FlightAware ADS-B
Tue 03:32:37 PM 42.6230 -72.6780 100° East 449 517 25,000 -2,259 Descending FlightAware ADS-B
Tue 03:33:17 PM 42.6090 -72.5660 100° East 435 501 23,500 -2,100 Descending FlightAware ADS-B
Tue 03:33:57 PM 42.5970 -72.4640 99° East 423 487 22,200 -1,976 Descending FlightAware ADS-B
Tue 03:34:42 PM 42.5820 -72.3480 100° East 409 471 20,700 -1,976 Descending FlightAware ADS-B
Tue 03:35:22 PM 42.5700 -72.2490 99° East 395 455 19,400 -1,976 Descending FlightAware ADS-B
Tue 03:36:07 PM 42.5570 -72.1390 99° East 381 438 17,900 -2,188 Descending FlightAware ADS-B
Tue 03:36:47 PM 42.5440 -72.0440 100° East 378 435 16,300 -2,100 Descending FlightAware ADS-B
Tue 03:37:27 PM 42.5360 -71.9530 97° East 367 422 15,100 -1,765 Descending FlightAware ADS-B
Tue 03:38:12 PM 42.5270 -71.8520 97° East 354 407 13,800 -1,694 Descending FlightAware ADS-B
Tue 03:38:52 PM 42.5190 -71.7660 97° East 342 394 12,700 -1,694 Descending FlightAware ADS-B
Tue 03:39:37 PM 42.5100 -71.6720 97° East 330 380 11,400 -1,553 Descending FlightAware ADS-B
Tue 03:40:17 PM 42.5030 -71.5910 97° East 323 372 10,500 -1,059 Descending FlightAware ADS-B
Tue 03:41:02 PM 42.4950 -71.5040 97° East 300 345 9,900 -771 Descending FlightAware ADS-B
Tue 03:41:27 PM 42.4900 -71.4590 99° East 283 326 9,600 -764 Descending FlightAware ADS-B
Tue 03:41:57 PM 42.4850 -71.4060 97° East 281 323 9,200 -764 Descending FlightAware ADS-B
Tue 03:42:22 PM 42.4810 -71.3630 97° East 276 318 8,900 -655 Descending FlightAware ADS-B
Tue 03:42:52 PM 42.4760 -71.3110 97° East 272 313 8,600 -655 Descending FlightAware ADS-B
Tue 03:43:17 PM 42.4720 -71.2690 97° East 270 311 8,300 -764 Descending FlightAware ADS-B
Tue 03:43:47 PM 42.4670 -71.2180 98° East 266 306 7,900 -700 Descending FlightAware ADS-B
Tue 03:44:17 PM 42.4630 -71.1720 97° East 249 287 7,600 -545 Descending FlightAware ADS-B
Tue 03:44:42 PM 42.4600 -71.1370 97° East 231 266 7,400 -436 Descending FlightAware ADS-B
Tue 03:45:12 PM 42.4560 -71.0980 98° East 215 247 7,200 -545 Descending FlightAware ADS-B
Tue 03:45:37 PM 42.4530 -71.0630 97° East 205 236 6,900 -655 Descending FlightAware ADS-B
Tue 03:46:07 PM 42.4460 -71.0260 104° East 202 232 6,600 -450 Descending FlightAware ADS-B
Tue 03:46:17 PM 42.4380 -71.0180 144° Southeast 206 237 6,600 -240 Level FlightAware ADS-B
Tue 03:46:32 PM 42.4240 -71.0110 160° South 215 247 6,500 -545 Descending FlightAware ADS-B
Tue 03:48:07 PM 42.3340 -70.9910 171° South 222 255 5,600 -700 Descending FlightAware ADS-B
Tue 03:48:32 PM 42.3100 -70.9850 170° South 221 254 5,100 -1,457 Descending FlightAware ADS-B
Tue 03:49:17 PM 42.2620 -70.9750 171° South 223 257 3,900 -1,520 Descending FlightAware ADS-B
Tue 03:49:47 PM 42.2310 -70.9700 173° South 225 259 3,200 -1,320 Descending FlightAware ADS-B
Tue 03:50:07 PM 42.2100 -70.9760 192° South 232 267 2,800 -1,200 Descending FlightAware ADS-B
Tue 03:50:12 PM 42.2050 -70.9780 197° South 233 268 2,700 -218 Descending FlightAware ADS-B
Tue 03:51:02 PM 42.1550 -71.0020 200° South 243 280 2,600 -86 Descending FlightAware ADS-B
Tue 03:51:22 PM 42.1410 -71.0310 237° Southwest 246 283 2,600  Level FlightAware ADS-B
Tue 03:51:42 PM 42.1430 -71.0540 277° West 235 270 2,600  Level FlightAware ADS-B
Tue 03:51:57 PM 42.1560 -71.0750 310° West 219 252 2,600  Level FlightAware ADS-B
Tue 03:52:12 PM 42.1690 -71.0810 341° North 201 231 2,600  Level FlightAware ADS-B
Tue 03:52:37 PM 42.1890 -71.0850 352° North 170 196 2,600  Level FlightAware ADS-B
Tue 03:53:07 PM 42.2100 -71.0790 12° North 159 183 2,600 -133 Level FlightAware ADS-B
Tue 03:53:22 PM 42.2220 -71.0740 17° North 157 181 2,500 -514 Descending FlightAware ADS-B
Tue 03:53:42 PM 42.2350 -71.0680 19° North 156 180 2,300 -873 Descending FlightAware ADS-B
Tue 03:54:17 PM 42.2600 -71.0560 20° North 153 176 1,700 -880 Descending FlightAware ADS-B
Tue 03:54:57 PM 42.2830 -71.0450 19° North 134 154 1,200 -686 Descending FlightAware ADS-B
Tue 03:55:27 PM 42.2890 -71.0420 20° North 124 143 900 -686 Descending FlightAware ADS-B
Tue 03:55:32 PM 42.3010 -71.0360 20° North 124 143 800 -327 Descending FlightAware ADS-B
Tue 03:56:22 PM 42.3250 -71.0240 20° North 116 133 600 -333 Descending FlightAware ADS-B
Tue 03:56:44 PM 42.3500 -71.0167 20° North 119 137 400 -545 Descending KA90

Login

Don't have an account? Register now (free) for customized features, flight alerts, and more!